Time;durP1;ratioP1;P1;durP2;ratioP2;P2;SDS_P1;SDS_P2;PMS_P1;PMS_P2;Temp;Humidity;BMP_temperature;BMP_pressure;BME280_temperature;BME280_humidity;BME280_pressure;Samples;Min_cycle;Max_cycle;Signal;HPM_P1;HPM_P2
2022/01/19 00:01:29;;;;;;;;;;;16.80;99.90;;;;;;5001936;28;1152;-55
2022/01/19 00:03:55;;;;;;;;;;;16.80;99.90;;;;;;5000230;28;1902;-54
2022/01/19 00:06:21;;;;;;;;;;;16.80;99.90;;;;;;5016531;28;882;-45
2022/01/19 00:08:47;;;;;;;;;;;16.70;99.90;;;;;;5016272;28;1025;-55
2022/01/19 00:11:14;;;;;;;;;;;16.70;99.90;;;;;;5016147;28;1215;-55
2022/01/19 00:13:40;;;;;;;;;;;16.60;99.90;;;;;;5016777;28;932;-54
2022/01/19 00:16:07;;;;;;;;;;;16.70;99.90;;;;;;5016434;28;957;-55
2022/01/19 00:18:33;;;;;;;;;;;16.60;99.90;;;;;;5016690;28;852;-55
2022/01/19 00:20:59;;;;;;;;;;;16.60;99.90;;;;;;5027361;28;1273;-55
2022/01/19 00:23:24;;;;;;;;;;;16.60;99.90;;;;;;5036880;28;1963;-45
2022/01/19 00:25:52;;;;;;;;;;;16.50;99.90;;;;;;5037076;28;880;-45
2022/01/19 00:28:18;;;;;;;;;;;16.50;99.90;;;;;;5033028;28;873;-45
2022/01/19 00:30:44;;;;;;;;;;;16.50;99.90;;;;;;5037148;28;962;-45
2022/01/19 00:33:11;;;;;;;;;;;16.40;99.90;;;;;;5036896;28;883;-54
2022/01/19 00:35:37;;;;;;;;;;;16.40;99.90;;;;;;5035521;28;803;-45
2022/01/19 00:38:04;;;;;;;;;;;16.40;99.90;;;;;;5037916;28;1367;-45
2022/01/19 00:40:30;;;;;;;;;;;16.40;99.90;;;;;;5046009;28;857;-45
2022/01/19 00:42:56;;;;;;;;;;;16.30;99.90;;;;;;5036741;28;1888;-54
2022/01/19 00:45:22;;;;;;;;;;;16.30;99.90;;;;;;5015215;28;869;-45
2022/01/19 00:47:48;;;;;;;;;;;16.30;99.90;;;;;;5014095;28;1438;-54
2022/01/19 00:50:17;;;;;;;;;;;16.30;99.90;;;;;;5014576;28;936;-54
2022/01/19 00:52:43;;;;;;;;;;;16.30;99.90;;;;;;4993273;28;914;-45
2022/01/19 00:55:10;;;;;;;;;;;16.20;99.90;;;;;;5015021;28;1076;-54
2022/01/19 00:57:36;;;;;;;;;;;16.20;99.90;;;;;;5015074;28;1240;-54
2022/01/19 01:00:22;;;;;;;;;;;16.20;99.90;;;;;;5014826;28;1079;-54
2022/01/19 01:02:48;;;;;;;;;;;16.20;99.90;;;;;;5013631;28;1969;-45
2022/01/19 01:05:14;;;;;;;;;;;16.10;99.90;;;;;;5014596;28;943;-45
2022/01/19 01:07:42;;;;;;;;;;;16.10;99.90;;;;;;5014799;28;1056;-54
2022/01/19 01:10:09;;;;;;;;;;;16.10;99.90;;;;;;5015049;28;937;-54
2022/01/19 01:20:36;;;;;;;;;;;16.00;99.90;;;;;;5037437;28;1351;-54
2022/01/19 01:23:03;;;;;;;;;;;16.00;99.90;;;;;;5030591;28;1911;-52
2022/01/19 01:25:30;;;;;;;;;;;15.90;99.90;;;;;;5037274;28;1199;-45
2022/01/19 01:27:55;;;;;;;;;;;15.90;99.90;;;;;;5034908;28;843;-45
2022/01/19 01:30:22;;;;;;;;;;;15.90;99.90;;;;;;5036198;28;788;-46
2022/01/19 01:32:47;;;;;;;;;;;15.80;99.90;;;;;;5035986;28;1019;-45
2022/01/19 01:35:14;;;;;;;;;;;15.80;99.90;;;;;;5034510;28;1246;-55
2022/01/19 01:37:40;;;;;;;;;;;15.80;99.90;;;;;;5036022;28;1030;-45
2022/01/19 01:40:08;;;;;;;;;;;15.80;99.90;;;;;;5036039;28;856;-45
2022/01/19 01:42:35;;;;;;;;;;;15.80;99.90;;;;;;5036150;28;1894;-54
2022/01/19 01:45:03;;;;;;;;;;;15.70;99.90;;;;;;5035760;28;818;-54
2022/01/19 01:47:31;;;;;;;;;;;15.70;99.90;;;;;;5035795;28;934;-54
2022/01/19 01:55:09;;;;;;;;;;;15.60;99.90;;;;;;5035893;28;788;-46
2022/01/19 01:57:35;;;;;;;;;;;15.60;99.90;;;;;;5033683;28;1022;-45
2022/01/19 02:00:06;;;;;;;;;;;15.60;99.90;;;;;;5033381;28;1034;-45
2022/01/19 02:02:32;;;;;;;;;;;15.60;99.90;;;;;;5037515;28;1906;-45
2022/01/19 02:04:58;;;;;;;;;;;15.50;99.90;;;;;;5039913;28;786;-45
2022/01/19 02:07:32;;;;;;;;;;;15.60;99.90;;;;;;5037824;28;949;-45
2022/01/19 02:10:05;;;;;;;;;;;15.50;99.90;;;;;;5004292;28;1068;-54
2022/01/19 02:23:44;;;;;;;;;;;15.40;99.90;;;;;;5039768;28;1902;-54
2022/01/19 02:26:26;;;;;;;;;;;15.40;99.90;;;;;;5035483;28;1004;-54
2022/01/19 02:29:19;;;;;;;;;;;15.30;99.90;;;;;;5038751;28;906;-45
2022/01/19 02:36:31;;;;;;;;;;;15.30;99.90;;;;;;5039314;28;802;-45
2022/01/19 02:42:35;;;;;;;;;;;15.20;99.90;;;;;;5039175;28;1976;-45
2022/01/19 02:49:58;;;;;;;;;;;15.10;99.90;;;;;;5038913;28;794;-45
2022/01/19 02:52:24;;;;;;;;;;;15.10;99.90;;;;;;5038957;28;809;-45
2022/01/19 02:54:51;;;;;;;;;;;15.10;99.90;;;;;;5038799;28;927;-45
2022/01/19 02:57:20;;;;;;;;;;;15.00;99.90;;;;;;5038813;28;1232;-54
2022/01/19 03:06:27;;;;;;;;;;;15.10;99.90;;;;;;5022578;28;810;-54
2022/01/19 03:10:48;;;;;;;;;;;15.00;99.90;;;;;;5038437;28;806;-45
2022/01/19 03:13:14;;;;;;;;;;;14.90;99.90;;;;;;5037472;28;970;-54
2022/01/19 03:15:40;;;;;;;;;;;14.90;99.90;;;;;;5037590;28;829;-45
2022/01/19 03:18:06;;;;;;;;;;;14.90;99.90;;;;;;5038467;28;1036;-45
2022/01/19 03:20:32;;;;;;;;;;;14.90;99.90;;;;;;5038548;28;861;-45
2022/01/19 03:23:04;;;;;;;;;;;14.90;99.90;;;;;;5037687;28;1902;-54
2022/01/19 03:25:36;;;;;;;;;;;14.80;99.90;;;;;;5037754;28;1009;-45
2022/01/19 03:28:07;;;;;;;;;;;14.80;99.90;;;;;;5033348;28;935;-54
2022/01/19 03:30:33;;;;;;;;;;;14.80;99.90;;;;;;5037975;28;979;-45
2022/01/19 03:32:59;;;;;;;;;;;14.80;99.90;;;;;;5036318;28;1144;-45
2022/01/19 03:35:25;;;;;;;;;;;14.70;99.90;;;;;;5038284;28;770;-54
2022/01/19 03:37:51;;;;;;;;;;;14.70;99.90;;;;;;5037935;28;941;-54
2022/01/19 03:40:17;;;;;;;;;;;14.70;99.90;;;;;;5038050;28;817;-45
2022/01/19 03:42:43;;;;;;;;;;;14.70;99.90;;;;;;5037788;28;1894;-45
2022/01/19 03:45:10;;;;;;;;;;;14.70;99.90;;;;;;5037984;28;849;-45
2022/01/19 03:47:42;;;;;;;;;;;14.60;99.90;;;;;;5019325;28;854;-45
2022/01/19 03:50:08;;;;;;;;;;;14.60;99.90;;;;;;5035154;28;913;-45
2022/01/19 03:52:35;;;;;;;;;;;14.60;99.90;;;;;;5037711;28;1141;-45
2022/01/19 03:55:01;;;;;;;;;;;14.60;99.90;;;;;;5037570;28;1008;-54
2022/01/19 03:57:27;;;;;;;;;;;14.60;99.90;;;;;;5034585;28;1228;-54
2022/01/19 03:59:53;;;;;;;;;;;14.50;99.90;;;;;;5037578;28;766;-45
2022/01/19 04:02:19;;;;;;;;;;;14.50;99.90;;;;;;5037599;28;865;-54
2022/01/19 04:04:52;;;;;;;;;;;14.50;99.90;;;;;;5034306;28;1977;-45
2022/01/19 04:07:18;;;;;;;;;;;14.50;99.90;;;;;;5037781;28;1063;-45
2022/01/19 04:09:45;;;;;;;;;;;14.50;99.90;;;;;;5037354;28;792;-54
2022/01/19 04:12:18;;;;;;;;;;;14.40;99.90;;;;;;5037249;28;1050;-54
2022/01/19 04:14:44;;;;;;;;;;;14.50;99.90;;;;;;5032633;28;1019;-45
2022/01/19 04:17:11;;;;;;;;;;;14.40;99.90;;;;;;5020387;28;1019;-54
2022/01/19 04:19:44;;;;;;;;;;;14.40;99.90;;;;;;5019799;28;1398;-54
2022/01/19 04:22:13;;;;;;;;;;;14.40;99.90;;;;;;5037385;28;902;-55
2022/01/19 04:24:39;;;;;;;;;;;14.40;99.90;;;;;;5036601;28;1973;-45
2022/01/19 04:29:42;;;;;;;;;;;14.30;99.90;;;;;;5037201;28;806;-45
2022/01/19 04:32:13;;;;;;;;;;;14.30;99.90;;;;;;5036802;28;818;-45
2022/01/19 04:34:41;;;;;;;;;;;14.30;99.90;;;;;;5036677;28;975;-54
2022/01/19 05:01:45;;;;;;;;;;;14.10;99.90;;;;;;5022573;28;762;-54
2022/01/19 05:06:50;;;;;;;;;;;14.10;99.90;;;;;;5021151;28;849;-45
2022/01/19 05:14:33;;;;;;;;;;;14.00;99.90;;;;;;5033457;28;1224;-54
2022/01/19 05:16:59;;;;;;;;;;;14.00;99.90;;;;;;5036261;28;839;-55
2022/01/19 05:19:25;;;;;;;;;;;14.00;99.90;;;;;;5036285;28;867;-54
2022/01/19 05:21:51;;;;;;;;;;;14.00;99.90;;;;;;5036405;28;790;-45
2022/01/19 05:24:16;;;;;;;;;;;14.00;99.90;;;;;;5036008;28;1968;-45
2022/01/19 05:26:42;;;;;;;;;;;14.00;99.90;;;;;;5036118;28;949;-55
2022/01/19 05:29:09;;;;;;;;;;;13.90;99.90;;;;;;5033234;28;1147;-45
2022/01/19 05:31:35;;;;;;;;;;;14.00;99.90;;;;;;5019212;28;1684;-55
2022/01/19 05:34:00;;;;;;;;;;;13.90;99.90;;;;;;5030339;28;784;-45
2022/01/19 05:36:26;;;;;;;;;;;13.90;99.90;;;;;;5035858;28;1191;-45
2022/01/19 05:38:52;;;;;;;;;;;13.90;99.90;;;;;;5036171;28;923;-44
2022/01/19 05:41:21;;;;;;;;;;;13.90;99.90;;;;;;5035970;28;768;-45
2022/01/19 05:43:47;;;;;;;;;;;13.90;99.90;;;;;;5034131;28;1902;-45
2022/01/19 05:46:13;;;;;;;;;;;13.90;99.90;;;;;;5050337;28;878;-45
2022/01/19 05:48:39;;;;;;;;;;;13.80;99.90;;;;;;5035247;28;1047;-45
2022/01/19 05:51:05;;;;;;;;;;;13.80;99.90;;;;;;5035546;28;912;-45
2022/01/19 05:53:31;;;;;;;;;;;13.80;99.90;;;;;;5034344;28;1136;-44
2022/01/19 05:55:59;;;;;;;;;;;13.80;99.90;;;;;;5035521;28;1011;-54
2022/01/19 05:58:26;;;;;;;;;;;13.80;99.90;;;;;;5035763;28;1239;-54
2022/01/19 06:00:53;;;;;;;;;;;13.80;99.90;;;;;;5035756;28;759;-54
2022/01/19 06:03:19;;;;;;;;;;;13.80;99.90;;;;;;5035717;28;1914;-54
2022/01/19 06:05:45;;;;;;;;;;;13.90;99.90;;;;;;5035962;28;881;-54
2022/01/19 06:08:16;;;;;;;;;;;13.90;99.90;;;;;;5035700;28;790;-45
2022/01/19 06:10:43;;;;;;;;;;;13.90;99.90;;;;;;5019345;28;930;-45
2022/01/19 06:13:15;;;;;;;;;;;13.90;99.90;;;;;;5035508;28;979;-45
2022/01/19 06:15:41;;;;;;;;;;;14.00;99.90;;;;;;5035658;28;912;-45
2022/01/19 06:18:07;;;;;;;;;;;14.00;99.90;;;;;;5036091;28;739;-45
2022/01/19 06:20:33;;;;;;;;;;;14.00;99.90;;;;;;5035113;28;1037;-54
2022/01/19 06:22:59;;;;;;;;;;;14.00;99.90;;;;;;5035346;28;791;-45
2022/01/19 06:25:25;;;;;;;;;;;14.10;99.90;;;;;;5032711;28;1313;-54
2022/01/19 06:27:52;;;;;;;;;;;14.20;99.90;;;;;;5035782;28;885;-54
2022/01/19 06:30:18;;;;;;;;;;;14.20;99.90;;;;;;5035682;28;902;-45
2022/01/19 06:32:44;;;;;;;;;;;14.30;99.90;;;;;;5035590;28;825;-54
2022/01/19 06:35:10;;;;;;;;;;;14.40;99.90;;;;;;5035754;28;886;-45
2022/01/19 06:37:36;;;;;;;;;;;14.40;99.90;;;;;;5035679;28;911;-45
2022/01/19 06:40:05;;;;;;;;;;;14.50;99.90;;;;;;5035428;28;786;-54
2022/01/19 06:42:31;;;;;;;;;;;14.50;99.90;;;;;;5035249;28;786;-54
2022/01/19 06:44:57;;;;;;;;;;;14.60;99.90;;;;;;5035392;28;1902;-45
2022/01/19 06:47:24;;;;;;;;;;;14.60;99.90;;;;;;5035430;28;834;-45
2022/01/19 06:49:50;;;;;;;;;;;14.70;99.90;;;;;;5038995;28;829;-45
2022/01/19 06:52:16;;;;;;;;;;;14.70;99.90;;;;;;5022344;28;959;-54
2022/01/19 06:54:42;;;;;;;;;;;14.80;99.90;;;;;;5038226;28;1009;-54
2022/01/19 06:57:08;;;;;;;;;;;14.80;99.90;;;;;;5038738;28;1029;-54
2022/01/19 06:59:34;;;;;;;;;;;14.90;99.90;;;;;;5038769;28;801;-54
2022/01/19 07:02:00;;;;;;;;;;;14.90;99.90;;;;;;5038636;28;943;-45
2022/01/19 07:04:26;;;;;;;;;;;14.90;99.90;;;;;;5038644;28;1902;-45
2022/01/19 07:06:53;;;;;;;;;;;15.00;99.90;;;;;;5043487;28;955;-54
2022/01/19 07:09:19;;;;;;;;;;;15.10;99.90;;;;;;5037464;28;959;-45
2022/01/19 07:11:45;;;;;;;;;;;15.10;99.90;;;;;;5035549;28;746;-55
2022/01/19 07:14:14;;;;;;;;;;;15.10;99.90;;;;;;5038662;28;861;-54
2022/01/19 07:16:40;;;;;;;;;;;15.20;99.90;;;;;;5038692;28;829;-46
2022/01/19 07:19:06;;;;;;;;;;;15.20;99.90;;;;;;5038448;28;793;-54
2022/01/19 07:21:32;;;;;;;;;;;15.20;99.90;;;;;;5038514;28;989;-55
2022/01/19 07:23:58;;;;;;;;;;;15.30;99.90;;;;;;5038288;28;1902;-54
2022/01/19 07:26:24;;;;;;;;;;;15.30;99.90;;;;;;5038130;28;884;-54
2022/01/19 07:28:50;;;;;;;;;;;15.30;99.90;;;;;;5038285;28;825;-54
2022/01/19 07:31:16;;;;;;;;;;;15.40;99.90;;;;;;5034335;28;799;-45
2022/01/19 07:33:42;;;;;;;;;;;15.40;99.90;;;;;;5036669;28;1259;-54
2022/01/19 07:36:08;;;;;;;;;;;15.40;99.90;;;;;;5038234;28;1025;-54
2022/01/19 07:38:34;;;;;;;;;;;15.40;99.90;;;;;;5038232;28;845;-54
2022/01/19 07:41:00;;;;;;;;;;;15.50;99.90;;;;;;5037857;28;1030;-54
2022/01/19 07:43:26;;;;;;;;;;;15.50;99.90;;;;;;5037926;28;1969;-54
2022/01/19 07:45:52;;;;;;;;;;;15.50;99.90;;;;;;5037924;28;778;-54
2022/01/19 07:48:18;;;;;;;;;;;15.50;99.90;;;;;;5037495;28;1792;-55
2022/01/19 07:50:45;;;;;;;;;;;15.50;99.90;;;;;;5023704;28;1764;-45
2022/01/19 07:53:11;;;;;;;;;;;15.50;99.90;;;;;;5035130;28;1961;-54
2022/01/19 07:55:38;;;;;;;;;;;15.50;99.90;;;;;;5035922;28;1264;-55
2022/01/19 07:58:04;;;;;;;;;;;15.50;99.90;;;;;;5036928;28;1564;-46
2022/01/19 08:00:33;;;;;;;;;;;15.50;99.90;;;;;;5031214;28;1314;-54
2022/01/19 08:02:59;;;;;;;;;;;15.50;99.90;;;;;;5037200;28;950;-54
2022/01/19 08:05:25;;;;;;;;;;;15.50;99.90;;;;;;5037506;28;1971;-54
2022/01/19 08:07:52;;;;;;;;;;;15.50;99.90;;;;;;5037599;28;790;-54
2022/01/19 08:10:18;;;;;;;;;;;15.60;99.90;;;;;;5036711;28;1246;-54
2022/01/19 08:12:44;;;;;;;;;;;15.50;99.90;;;;;;5037706;28;883;-55
2022/01/19 08:15:10;;;;;;;;;;;15.60;99.90;;;;;;5033055;28;747;-54
2022/01/19 08:17:37;;;;;;;;;;;15.60;99.90;;;;;;5037958;28;850;-45
2022/01/19 08:20:04;;;;;;;;;;;15.60;99.90;;;;;;5038837;28;830;-55
2022/01/19 08:22:31;;;;;;;;;;;15.60;99.90;;;;;;5038743;28;910;-54
2022/01/19 08:24:58;;;;;;;;;;;15.60;99.90;;;;;;5038039;28;1913;-45
2022/01/19 08:27:24;;;;;;;;;;;15.70;99.90;;;;;;5036735;28;1239;-54
2022/01/19 08:29:50;;;;;;;;;;;15.70;99.90;;;;;;5037296;28;873;-46
2022/01/19 08:32:18;;;;;;;;;;;15.70;99.90;;;;;;5031037;28;1230;-45
2022/01/19 08:34:44;;;;;;;;;;;15.70;99.90;;;;;;5036826;28;1071;-46
2022/01/19 08:37:14;;;;;;;;;;;15.70;99.90;;;;;;5036785;28;1033;-45
2022/01/19 08:39:42;;;;;;;;;;;15.70;99.90;;;;;;5019425;28;1033;-45
2022/01/19 08:42:09;;;;;;;;;;;15.80;99.90;;;;;;5036632;28;1429;-54
2022/01/19 08:44:35;;;;;;;;;;;15.80;99.90;;;;;;5027510;28;1966;-55
2022/01/19 08:47:01;;;;;;;;;;;15.80;99.90;;;;;;5035170;28;1439;-54
2022/01/19 08:49:27;;;;;;;;;;;15.80;99.90;;;;;;5036099;28;963;-45
2022/01/19 08:51:53;;;;;;;;;;;15.90;99.90;;;;;;5034612;28;1335;-54
2022/01/19 08:54:19;;;;;;;;;;;15.90;99.90;;;;;;5036073;28;966;-54
2022/01/19 08:56:46;;;;;;;;;;;15.90;99.90;;;;;;5034710;28;1268;-55
2022/01/19 08:59:12;;;;;;;;;;;16.00;99.90;;;;;;5031039;28;1154;-45
2022/01/19 09:01:38;;;;;;;;;;;16.00;99.90;;;;;;5036403;28;1200;-45
2022/01/19 09:04:04;;;;;;;;;;;16.10;99.90;;;;;;5036923;28;1980;-45
2022/01/19 09:06:30;;;;;;;;;;;16.00;99.90;;;;;;5035486;28;1347;-54
2022/01/19 09:08:58;;;;;;;;;;;16.10;99.90;;;;;;5034040;28;1319;-55
2022/01/19 09:11:27;;;;;;;;;;;16.10;99.90;;;;;;5038642;28;1323;-55
2022/01/19 09:13:53;;;;;;;;;;;16.10;99.90;;;;;;5036207;28;1601;-45
2022/01/19 09:16:19;;;;;;;;;;;16.10;99.90;;;;;;5023784;28;1352;-45
2022/01/19 09:18:50;;;;;;;;;;;16.10;99.90;;;;;;5044685;28;1357;-45
2022/01/19 09:21:16;;;;;;;;;;;16.10;99.90;;;;;;5044906;28;1427;-54
2022/01/19 09:23:45;;;;;;;;;;;16.10;99.90;;;;;;5043352;28;1981;-45
2022/01/19 09:26:11;;;;;;;;;;;16.20;99.90;;;;;;4978514;28;1346;-44
2022/01/19 09:28:39;;;;;;;;;;;16.20;99.90;;;;;;5034483;28;966;-44
2022/01/19 09:31:11;;;;;;;;;;;16.20;99.90;;;;;;5038314;28;1138;-44
2022/01/19 09:33:37;;;;;;;;;;;16.20;99.90;;;;;;5035605;28;909;-54
2022/01/19 09:36:17;;;;;;;;;;;16.20;99.90;;;;;;5039631;28;1189;-53
2022/01/19 09:38:44;;;;;;;;;;;16.20;99.90;;;;;;5036320;28;770;-50
2022/01/19 09:41:11;;;;;;;;;;;16.20;99.90;;;;;;5036190;28;1169;-44
2022/01/19 09:43:38;;;;;;;;;;;16.20;99.90;;;;;;5036679;28;1974;-45
2022/01/19 09:46:04;;;;;;;;;;;16.20;99.90;;;;;;5035653;28;861;-45
2022/01/19 09:48:30;;;;;;;;;;;16.20;99.90;;;;;;5036368;28;762;-45
2022/01/19 09:50:56;;;;;;;;;;;16.10;99.90;;;;;;5036109;28;1154;-54
2022/01/19 09:53:23;;;;;;;;;;;16.00;99.90;;;;;;5033626;28;870;-53
2022/01/19 09:55:49;;;;;;;;;;;15.90;99.90;;;;;;5033397;28;790;-44
2022/01/19 09:58:17;;;;;;;;;;;15.70;99.90;;;;;;5035775;28;1018;-44
2022/01/19 10:00:43;;;;;;;;;;;15.60;99.90;;;;;;5031998;28;1160;-54
2022/01/19 10:03:13;;;;;;;;;;;15.70;99.90;;;;;;5035742;28;996;-53
2022/01/19 10:05:57;;;;;;;;;;;15.90;99.90;;;;;;5036218;28;1959;-44
2022/01/19 10:08:31;;;;;;;;;;;16.00;99.90;;;;;;5039014;28;1192;-45
2022/01/19 10:11:09;;;;;;;;;;;16.10;99.90;;;;;;5034324;28;976;-45
2022/01/19 10:19:15;;;;;;;;;;;16.30;99.90;;;;;;5034008;28;1026;-55
2022/01/19 10:21:54;;;;;;;;;;;16.40;99.90;;;;;;5038249;28;1000;-45
2022/01/19 10:24:31;;;;;;;;;;;16.40;99.90;;;;;;5039192;28;1906;-45
2022/01/19 10:27:17;;;;;;;;;;;16.50;99.90;;;;;;5019239;28;815;-45
2022/01/19 10:29:43;;;;;;;;;;;16.50;99.90;;;;;;5039749;28;1004;-54
2022/01/19 10:32:09;;;;;;;;;;;16.60;99.90;;;;;;5039765;28;1043;-45
2022/01/19 10:34:35;;;;;;;;;;;16.60;99.90;;;;;;5039406;28;805;-45
2022/01/19 10:37:02;;;;;;;;;;;16.70;99.90;;;;;;5039388;28;768;-55
2022/01/19 10:39:57;;;;;;;;;;;16.70;99.90;;;;;;5038612;28;1318;-45
2022/01/19 10:42:25;;;;;;;;;;;16.80;99.90;;;;;;5037414;28;1066;-54
2022/01/19 10:44:57;;;;;;;;;;;16.80;99.90;;;;;;5033025;28;1898;-45
2022/01/19 10:47:44;;;;;;;;;;;16.90;99.90;;;;;;5022698;28;1008;-45
2022/01/19 10:50:55;;;;;;;;;;;17.00;99.90;;;;;;5037320;28;793;-55
2022/01/19 10:53:32;;;;;;;;;;;17.00;99.90;;;;;;4989545;28;1136;-45
2022/01/19 10:55:58;;;;;;;;;;;17.10;99.90;;;;;;5038773;28;801;-45
2022/01/19 10:58:24;;;;;;;;;;;17.20;99.90;;;;;;5037763;28;1089;-45
2022/01/19 11:00:52;;;;;;;;;;;17.30;99.90;;;;;;5035628;28;1235;-45
2022/01/19 11:03:21;;;;;;;;;;;17.30;99.90;;;;;;5038623;28;779;-45
2022/01/19 11:05:55;;;;;;;;;;;17.30;99.90;;;;;;5037792;28;1958;-54
2022/01/19 11:08:22;;;;;;;;;;;17.30;99.90;;;;;;5039127;28;881;-45
2022/01/19 11:10:49;;;;;;;;;;;17.30;99.90;;;;;;5038773;28;778;-45
2022/01/19 11:13:25;;;;;;;;;;;17.20;99.90;;;;;;5038212;28;995;-45
2022/01/19 11:15:51;;;;;;;;;;;17.20;99.90;;;;;;5038307;28;951;-45
2022/01/19 11:18:19;;;;;;;;;;;17.20;99.90;;;;;;5038550;28;846;-45
2022/01/19 11:20:46;;;;;;;;;;;17.40;99.90;;;;;;5038345;28;1283;-45
2022/01/19 11:23:30;;;;;;;;;;;17.50;99.90;;;;;;5038360;28;944;-45
2022/01/19 11:26:17;;;;;;;;;;;17.60;99.90;;;;;;5037603;28;1898;-54
2022/01/19 11:28:49;;;;;;;;;;;17.70;99.90;;;;;;5037727;28;1341;-45
2022/01/19 11:31:19;;;;;;;;;;;17.70;99.90;;;;;;5038431;28;803;-54
2022/01/19 11:33:51;;;;;;;;;;;17.70;99.90;;;;;;5037867;28;1227;-45
2022/01/19 11:36:43;;;;;;;;;;;17.80;99.90;;;;;;5035180;28;1255;-53
2022/01/19 11:39:11;;;;;;;;;;;17.80;99.90;;;;;;5035858;28;1177;-54
2022/01/19 11:41:39;;;;;;;;;;;17.90;99.90;;;;;;5037944;28;853;-45
2022/01/19 11:44:07;;;;;;;;;;;17.90;99.90;;;;;;5020985;28;1910;-45
2022/01/19 11:46:33;;;;;;;;;;;17.90;99.90;;;;;;5037882;28;754;-54
2022/01/19 11:49:00;;;;;;;;;;;18.00;99.90;;;;;;5037912;28;874;-45
2022/01/19 11:51:38;;;;;;;;;;;18.00;99.90;;;;;;5038053;28;1139;-54
2022/01/19 11:54:10;;;;;;;;;;;18.00;99.90;;;;;;5037929;28;932;-54
2022/01/19 11:56:55;;;;;;;;;;;18.10;99.90;;;;;;5037361;28;1105;-45
2022/01/19 11:59:25;;;;;;;;;;;18.10;99.90;;;;;;5037472;28;1054;-46
2022/01/19 12:01:51;;;;;;;;;;;18.10;99.90;;;;;;5036257;28;1335;-46
2022/01/19 12:04:18;;;;;;;;;;;18.10;99.90;;;;;;5035806;28;1980;-46
2022/01/19 12:06:45;;;;;;;;;;;18.10;99.90;;;;;;5037483;28;916;-54
2022/01/19 12:09:12;;;;;;;;;;;18.10;99.90;;;;;;5037205;28;794;-55
2022/01/19 12:11:43;;;;;;;;;;;18.00;99.90;;;;;;5036818;28;946;-45
2022/01/19 12:19:10;;;;;;;;;;;17.90;99.90;;;;;;5035641;28;759;-46
2022/01/19 12:21:41;;;;;;;;;;;17.90;99.90;;;;;;5035692;28;886;-46
2022/01/19 12:24:13;;;;;;;;;;;17.90;99.90;;;;;;5035595;28;1914;-45
2022/01/19 12:27:00;;;;;;;;;;;17.90;99.90;;;;;;5037140;28;782;-53
2022/01/19 12:29:38;;;;;;;;;;;17.90;99.90;;;;;;5035432;28;1210;-54
2022/01/19 12:32:04;;;;;;;;;;;17.90;99.90;;;;;;5037088;28;822;-45
2022/01/19 12:34:41;;;;;;;;;;;17.90;99.90;;;;;;5036921;28;811;-45
2022/01/19 12:37:07;;;;;;;;;;;17.90;99.90;;;;;;5035392;28;929;-45
2022/01/19 12:39:35;;;;;;;;;;;17.90;99.90;;;;;;5033792;28;1594;-45
2022/01/19 12:42:04;;;;;;;;;;;17.90;99.90;;;;;;5036917;28;787;-54
2022/01/19 12:44:47;;;;;;;;;;;17.90;99.90;;;;;;5036674;28;1975;-54
2022/01/19 12:47:25;;;;;;;;;;;17.90;99.90;;;;;;5036011;28;974;-54
2022/01/19 12:49:53;;;;;;;;;;;17.90;99.90;;;;;;5036068;28;934;-54
2022/01/19 12:52:20;;;;;;;;;;;17.80;99.90;;;;;;5036842;28;798;-45
2022/01/19 12:54:46;;;;;;;;;;;17.80;99.90;;;;;;5036599;28;949;-55
2022/01/19 12:57:15;;;;;;;;;;;17.90;99.90;;;;;;5036452;28;1282;-54
2022/01/19 12:59:58;;;;;;;;;;;17.90;99.90;;;;;;5035169;28;1091;-54
2022/01/19 13:02:28;;;;;;;;;;;17.90;99.90;;;;;;5036449;28;909;-53
2022/01/19 13:05:02;;;;;;;;;;;17.90;99.90;;;;;;5015018;28;1965;-44
2022/01/19 13:07:30;;;;;;;;;;;17.90;99.90;;;;;;5036418;28;747;-54
2022/01/19 13:12:55;;;;;;;;;;;17.90;99.90;;;;;;5014728;28;1096;-44
2022/01/19 13:15:38;;;;;;;;;;;17.90;99.90;;;;;;5035468;28;944;-44
2022/01/19 13:18:04;;;;;;;;;;;17.90;99.90;;;;;;5036185;28;1012;-54
2022/01/19 13:20:31;;;;;;;;;;;17.90;99.90;;;;;;5036394;28;822;-44
2022/01/19 13:22:57;;;;;;;;;;;17.90;99.90;;;;;;5035936;28;1022;-54
2022/01/19 13:25:25;;;;;;;;;;;17.90;99.90;;;;;;5024161;28;1906;-54
2022/01/19 13:27:56;;;;;;;;;;;17.90;99.90;;;;;;5036341;28;884;-44
2022/01/19 13:30:23;;;;;;;;;;;17.90;99.90;;;;;;5036743;28;919;-44
2022/01/19 13:32:50;;;;;;;;;;;17.90;99.90;;;;;;5015892;28;1496;-53
2022/01/19 13:35:17;;;;;;;;;;;17.90;99.90;;;;;;5036308;28;853;-44
2022/01/19 13:37:51;;;;;;;;;;;17.90;99.90;;;;;;5036178;28;834;-53
2022/01/19 13:40:23;;;;;;;;;;;17.90;99.90;;;;;;5019031;28;865;-44
2022/01/19 13:42:54;;;;;;;;;;;17.90;99.90;;;;;;5035889;28;1052;-54
2022/01/19 13:45:27;;;;;;;;;;;17.90;99.90;;;;;;5039794;28;1973;-54
2022/01/19 13:48:03;;;;;;;;;;;17.90;99.90;;;;;;5044467;28;1194;-44
2022/01/19 13:50:29;;;;;;;;;;;17.90;99.90;;;;;;5022160;28;1368;-55
2022/01/19 13:52:56;;;;;;;;;;;17.90;99.90;;;;;;5046306;28;1367;-54
2022/01/19 13:55:24;;;;;;;;;;;17.90;99.90;;;;;;4999410;28;1390;-55
2022/01/19 13:58:02;;;;;;;;;;;17.90;99.90;;;;;;5000762;28;1358;-45
2022/01/19 14:00:28;;;;;;;;;;;17.90;99.90;;;;;;4999651;28;854;-55
2022/01/19 14:03:00;;;;;;;;;;;17.90;99.90;;;;;;4999458;28;849;-54
2022/01/19 14:05:35;;;;;;;;;;;17.90;99.90;;;;;;5017317;28;1914;-54
2022/01/19 14:08:01;;;;;;;;;;;17.90;99.90;;;;;;5017462;28;846;-44
2022/01/19 14:10:37;;;;;;;;;;;17.90;99.90;;;;;;5016760;28;1563;-55
2022/01/19 14:13:23;;;;;;;;;;;17.80;99.90;;;;;;4998715;28;1326;-44
2022/01/19 14:16:14;;;;;;;;;;;17.80;99.90;;;;;;4998523;28;1623;-55
2022/01/19 14:19:03;;;;;;;;;;;17.80;99.90;;;;;;4975637;28;1435;-44
2022/01/19 14:21:36;;;;;;;;;;;17.70;99.90;;;;;;4984815;28;1424;-45
2022/01/19 14:24:27;;;;;;;;;;;17.70;99.90;;;;;;4966905;28;1081;-45
2022/01/19 14:26:54;;;;;;;;;;;17.70;99.90;;;;;;4992783;28;1343;-45
2022/01/19 14:29:20;;;;;;;;;;;17.70;99.90;;;;;;4998541;28;1502;-44
2022/01/19 14:31:51;;;;;;;;;;;17.70;99.90;;;;;;5017416;28;879;-54
2022/01/19 14:34:31;;;;;;;;;;;17.70;99.90;;;;;;5016988;28;1687;-45
2022/01/19 14:37:08;;;;;;;;;;;17.80;99.90;;;;;;5035598;28;1115;-44
2022/01/19 14:39:44;;;;;;;;;;;17.70;99.90;;;;;;5038235;28;766;-54
2022/01/19 14:42:10;;;;;;;;;;;17.70;99.90;;;;;;5021546;28;960;-54
2022/01/19 14:44:41;;;;;;;;;;;17.80;99.90;;;;;;5038287;28;1973;-55
2022/01/19 14:47:25;;;;;;;;;;;17.70;99.90;;;;;;5038799;28;1901;-44
2022/01/19 14:49:51;;;;;;;;;;;17.80;99.90;;;;;;5039357;28;1163;-44
2022/01/19 14:52:17;;;;;;;;;;;17.80;99.90;;;;;;5038855;28;814;-54
2022/01/19 14:54:43;;;;;;;;;;;17.80;99.90;;;;;;5035553;28;1045;-44
2022/01/19 14:57:09;;;;;;;;;;;17.80;99.90;;;;;;5039676;28;1366;-44
2022/01/19 14:59:36;;;;;;;;;;;17.80;99.90;;;;;;5038807;28;865;-45
2022/01/19 15:02:03;;;;;;;;;;;17.80;99.90;;;;;;5023735;28;1053;-54
2022/01/19 15:04:29;;;;;;;;;;;17.80;99.90;;;;;;5038678;28;1910;-54
2022/01/19 15:06:59;;;;;;;;;;;17.80;99.90;;;;;;5038746;28;877;-45
2022/01/19 15:09:25;;;;;;;;;;;17.80;99.90;;;;;;5037796;28;942;-45
2022/01/19 15:11:51;;;;;;;;;;;17.80;99.90;;;;;;5038430;28;896;-45
2022/01/19 15:14:17;;;;;;;;;;;17.80;99.90;;;;;;5038363;28;1843;-45
2022/01/19 15:16:43;;;;;;;;;;;17.80;99.90;;;;;;5038421;28;778;-45
2022/01/19 15:19:09;;;;;;;;;;;17.80;99.90;;;;;;5038770;28;984;-45
2022/01/19 15:21:35;;;;;;;;;;;17.80;99.90;;;;;;5038388;28;874;-54
2022/01/19 15:24:04;;;;;;;;;;;17.80;99.90;;;;;;5021144;28;861;-54
2022/01/19 15:26:31;;;;;;;;;;;17.80;99.90;;;;;;5037797;28;1954;-54
2022/01/19 15:28:59;;;;;;;;;;;17.70;99.90;;;;;;5037891;28;837;-54
2022/01/19 15:31:25;;;;;;;;;;;17.70;99.90;;;;;;5038047;28;889;-45
2022/01/19 15:33:51;;;;;;;;;;;17.70;99.90;;;;;;5038359;28;884;-54
2022/01/19 15:36:17;;;;;;;;;;;17.70;99.90;;;;;;5038432;28;806;-45
2022/01/19 15:38:45;;;;;;;;;;;17.70;99.90;;;;;;5036955;28;1309;-54
2022/01/19 15:41:13;;;;;;;;;;;17.70;99.90;;;;;;5037807;28;1586;-45
2022/01/19 15:43:39;;;;;;;;;;;17.70;99.90;;;;;;5020965;28;893;-54
2022/01/19 15:46:05;;;;;;;;;;;17.70;99.90;;;;;;5037979;28;1902;-54
2022/01/19 15:48:31;;;;;;;;;;;17.70;99.90;;;;;;5033358;28;811;-44
2022/01/19 15:50:58;;;;;;;;;;;17.70;99.90;;;;;;5020156;28;1057;-54
2022/01/19 15:53:25;;;;;;;;;;;17.70;99.90;;;;;;5026156;28;1010;-54
2022/01/19 15:55:52;;;;;;;;;;;17.70;99.90;;;;;;5037846;28;1004;-45
2022/01/19 15:58:19;;;;;;;;;;;17.70;99.90;;;;;;5037337;28;1173;-54
2022/01/19 16:00:46;;;;;;;;;;;17.70;99.90;;;;;;5037865;28;1043;-45
2022/01/19 16:03:12;;;;;;;;;;;17.70;99.90;;;;;;5036907;28;1065;-45
2022/01/19 16:05:38;;;;;;;;;;;17.70;99.90;;;;;;5037361;28;1906;-44
2022/01/19 16:08:05;;;;;;;;;;;17.60;99.90;;;;;;5037640;28;799;-44
2022/01/19 16:10:32;;;;;;;;;;;17.60;99.90;;;;;;5036934;28;1085;-44
2022/01/19 16:12:58;;;;;;;;;;;17.60;99.90;;;;;;5037509;28;782;-54
2022/01/19 16:15:24;;;;;;;;;;;17.60;99.90;;;;;;5037330;28;917;-54
2022/01/19 16:17:50;;;;;;;;;;;17.60;99.90;;;;;;5037310;28;2187;-54
2022/01/19 16:20:17;;;;;;;;;;;17.60;99.90;;;;;;5036737;28;837;-54